Share

Avera, GA

1:04 PM EDT on April 23, 2014 (GMT -0400)
Thomson-McDuffie County (KHQU) Elev 499 ft | 33.53 °N, 82.52 °W | Change Station

Current weather conditions updated 9 minutes ago

Clear
Clear
76 °F
Feels Like 76 °F
N
6
Wind Variable Wind from NW
Sunrise 6:50 AM
Sunset 8:06 PM
Moon Waning Crescent

Today is forecast to be Cooler than yesterday.

Pressure 29.94 in
Visibility 10.0 miles
Clouds Clear
Dew Point 50 °F
Humidity 41%
Rainfall 0.00 in
Snow Depth Not available.
UV 11 out of 16
Pollen 8.70 out of 12
Air Quality Not available.
Flu Activity Sporadic
METAR KHQU 231655Z AUTO 32005KT 10SM CLR 24/10 A2994 RMK AO1 T02420102

More Conditions Fewer Conditions

Pressure 29.94 in
Visibility 10.0 miles
Clouds Clear
Dew Point 50 °F
Humidity 41%
Rainfall 0.00 in
Snow Depth Not available.
UV 11 out of 16
Pollen 8.70 out of 12
Air Quality Not available.
Flu Activity Sporadic
METAR KHQU 231655Z AUTO 32005KT 10SM CLR 24/10 A2994 RMK AO1 T02420102

More Conditions Fewer Conditions

10-Day Weather Forecast

Almanac

Astronomy

Apr. 23, 2014 Rise Set
Actual Time 6:50 AM EDT 8:06 PM EDT
Civil Twilight 6:24 AM EDT 8:32 PM EDT
Nautical Twilight 5:54 AM EDT 9:03 PM EDT
Astronomical Twilight 5:22 AM EDT 9:35 PM EDT
Moon 3:02 AM EDT 2:31 PM EDT
Length of Visible Light 14h 07m
Length of Day
13h 15m
Tomorrow will be 1m 52s longer.
Waning Crescent, 34% of the Moon is Illuminated
Today
Waning Crescent
Apr 29
New
May 6
First Quarter
May 14
Full
May 21
Last Quarter

Today's Extremes

State Highs State Lows

Community

  • Stunning Sunrise
    Stunning Sunrise
  • spring flowers
    spring flowers
  • Earth Day Spectrum Ove' Blue
    Earth Day Spectrum Ove' Blue
  • BARN B&W
    BARN B&W
  • April Sunset
    April Sunset

WunderPhotos

Upload Photos

1,704,338 photos uploaded!

WunderBlogs® & News

Nearby

Snow Depth

Station Depth Elevation
No new snow has been reported.

Coastal Water Temperatures

Place Temperature
No Stations Reporting

Earthquake Activity

City Distance Mag. Time & Date
No recent earthquake activity has been reported nearby.
Minimum magnitude displayed is 2.5.

Nearby Weather Stations

Station Location Temp. Heat Index Dew Point Humidity Wind Precip. Elev Updated Type
RAWS LOUISVILLE GA, Louisville, GA 78 °F 79 °F 52 °F 41% NW  at  9 mph 0.00 in / hr 311 ft 12:03 PM EDT MADIS

Show More Stations Show Fewer Stations

What do you think?

We're not finished. Please let us know what you like, what you don't like, and what you are still missing.